createdAt,value
2023-05-22T00:01:52.171Z,99278.28
2023-05-22T00:04:21.759Z,99268.47
2023-05-22T00:06:49.488Z,99273.34
2023-05-22T00:09:16.759Z,99273.78
2023-05-22T00:11:43.685Z,99266.41
2023-05-22T00:14:10.547Z,99270.97
2023-05-22T00:16:37.465Z,99269.34
2023-05-22T00:19:04.678Z,99271.53
2023-05-22T00:21:35.174Z,99268.75
2023-05-22T00:24:02.653Z,99271.97
2023-05-22T00:26:29.550Z,99269.78
2023-05-22T00:28:56.329Z,99265.22
2023-05-22T00:31:24.095Z,99264.38
2023-05-22T00:33:51.017Z,99267.06
2023-05-22T00:36:19.043Z,99261.00
2023-05-22T00:38:46.589Z,99262.66
2023-05-22T00:41:13.835Z,99261.63
2023-05-22T00:43:40.711Z,99259.63
2023-05-22T00:46:10.321Z,99266.34
2023-05-22T00:48:37.145Z,99263.28
2023-05-22T00:51:04.440Z,99258.16
2023-05-22T00:53:31.940Z,99257.53
2023-05-22T00:55:59.846Z,99246.22
2023-05-22T00:58:27.673Z,99252.09
2023-05-22T01:00:55.851Z,99261.28
2023-05-22T01:03:27.218Z,99260.41
2023-05-22T01:05:54.873Z,99256.25
2023-05-22T01:08:22.149Z,99256.25
2023-05-22T01:10:54.698Z,99258.16
2023-05-22T01:13:34.715Z,99260.00
2023-05-22T01:16:13.409Z,99262.00
2023-05-22T01:18:46.504Z,99260.38
2023-05-22T01:21:22.542Z,99260.59
2023-05-22T01:24:48.589Z,99258.47
2023-05-22T01:27:39.360Z,99267.25
2023-05-22T01:30:27.127Z,99259.59
2023-05-22T01:32:58.424Z,99265.72
2023-05-22T01:35:26.445Z,99265.59
2023-05-22T01:37:54.922Z,99261.06
2023-05-22T01:40:22.593Z,99271.91
2023-05-22T01:42:49.951Z,99261.56
2023-05-22T01:45:16.809Z,99269.38
2023-05-22T01:47:43.967Z,99270.72
2023-05-22T01:50:11.832Z,99271.72
2023-05-22T01:52:54.240Z,99278.63
2023-05-22T01:55:40.595Z,99274.72
2023-05-22T01:58:18.051Z,99280.13
2023-05-22T02:00:47.343Z,99277.50
2023-05-22T02:03:19.472Z,99278.91
2023-05-22T02:05:52.136Z,99287.06
2023-05-22T02:08:21.490Z,99277.94
2023-05-22T02:10:50.984Z,99277.03
2023-05-22T02:13:18.462Z,99276.13
2023-05-22T02:15:47.232Z,99275.53
2023-05-22T02:18:14.174Z,99273.28
2023-05-22T02:20:42.017Z,99274.09
2023-05-22T02:23:09.501Z,99280.00
2023-05-22T02:25:36.352Z,99285.34
2023-05-22T02:28:03.184Z,99281.81
2023-05-22T02:30:30.033Z,99275.56
2023-05-22T02:32:58.643Z,99269.00
2023-05-22T02:35:25.515Z,99276.94
2023-05-22T02:37:52.797Z,99278.69
2023-05-22T02:40:19.627Z,99273.75
2023-05-22T02:42:46.402Z,99284.56
2023-05-22T02:45:13.334Z,99278.78
2023-05-22T02:47:40.252Z,99274.91
2023-05-22T02:50:07.903Z,99272.41
2023-05-22T02:52:35.442Z,99283.03
2023-05-22T02:55:02.282Z,99278.31
2023-05-22T02:57:29.022Z,99278.00
2023-05-22T02:59:55.841Z,99282.34
2023-05-22T03:02:22.615Z,99278.72
2023-05-22T03:04:49.353Z,99273.47
2023-05-22T03:07:16.237Z,99279.38
2023-05-22T03:09:43.219Z,99290.13
2023-05-22T03:12:10.393Z,99288.47
2023-05-22T03:14:37.183Z,99284.72
2023-05-22T03:17:04.331Z,99286.34
2023-05-22T03:19:31.419Z,99281.06
2023-05-22T03:21:58.370Z,99285.38
2023-05-22T03:24:25.164Z,99287.31
2023-05-22T03:26:51.960Z,99291.09
2023-05-22T03:29:18.907Z,99289.59
2023-05-22T03:31:45.748Z,99285.47
2023-05-22T03:34:12.747Z,99284.66
2023-05-22T03:36:39.637Z,99290.88
2023-05-22T03:39:06.654Z,99289.84
2023-05-22T03:41:33.481Z,99293.78
2023-05-22T03:44:00.329Z,99287.81
2023-05-22T03:46:27.179Z,99287.81
2023-05-22T03:48:54.013Z,99289.25
2023-05-22T03:51:21.005Z,99290.00
2023-05-22T03:53:47.904Z,99285.56
2023-05-22T03:56:14.749Z,99284.72
2023-05-22T03:58:41.577Z,99289.84
2023-05-22T04:01:10.212Z,99293.66
2023-05-22T04:03:40.141Z,99288.81
2023-05-22T04:06:07.841Z,99291.28
2023-05-22T04:08:35.038Z,99286.00
2023-05-22T04:11:03.396Z,99295.41
2023-05-22T04:13:31.613Z,99299.09
2023-05-22T04:15:58.772Z,99294.25
2023-05-22T04:18:25.633Z,99292.03
2023-05-22T04:20:52.475Z,99296.25
2023-05-22T04:23:19.265Z,99293.72
2023-05-22T04:25:48.159Z,99298.91
2023-05-22T04:28:17.774Z,99299.69
2023-05-22T04:30:45.042Z,99300.34
2023-05-22T04:33:12.967Z,99304.03
2023-05-22T04:35:41.061Z,99295.63
2023-05-22T04:38:08.262Z,99301.53
2023-05-22T04:40:35.284Z,99304.56
2023-05-22T04:43:02.112Z,99308.44
2023-05-22T04:45:29.164Z,99307.69
2023-05-22T04:47:56.547Z,99312.88
2023-05-22T04:50:24.255Z,99316.66
2023-05-22T04:52:51.210Z,99317.13
2023-05-22T04:55:19.508Z,99312.59
2023-05-22T04:57:47.532Z,99310.81
2023-05-22T05:00:17.032Z,99314.59
2023-05-22T05:02:44.172Z,99309.63
2023-05-22T05:05:11.299Z,99313.59
2023-05-22T05:07:39.541Z,99310.44
2023-05-22T05:10:07.590Z,99314.13
2023-05-22T05:12:34.699Z,99312.63
2023-05-22T05:15:01.995Z,99311.09
2023-05-22T05:17:29.130Z,99314.66
2023-05-22T05:19:56.028Z,99312.91
2023-05-22T05:22:23.204Z,99310.88
2023-05-22T05:24:50.093Z,99309.31
2023-05-22T05:27:17.159Z,99312.09
2023-05-22T05:29:44.062Z,99308.63
2023-05-22T05:32:12.787Z,99315.94
2023-05-22T05:34:39.669Z,99315.69
2023-05-22T05:37:06.504Z,99305.44
2023-05-22T05:39:33.597Z,99309.09
2023-05-22T05:42:00.578Z,99307.72
2023-05-22T05:44:27.509Z,99303.44
2023-05-22T05:46:54.987Z,99313.25
2023-05-22T05:49:22.556Z,99314.00
2023-05-22T05:51:49.352Z,99310.63
2023-05-22T05:54:16.271Z,99312.22
2023-05-22T05:56:43.130Z,99308.16
2023-05-22T05:59:10.200Z,99307.06
2023-05-22T06:01:38.837Z,99310.06
2023-05-22T06:04:05.791Z,99307.09
2023-05-22T06:06:36.618Z,99303.38
2023-05-22T06:09:06.524Z,99302.16
2023-05-22T06:11:34.206Z,99312.53
2023-05-22T06:14:05.266Z,99301.38
2023-05-22T06:16:32.230Z,99300.56
2023-05-22T06:19:00.025Z,99304.63
2023-05-22T06:21:27.085Z,99298.69
2023-05-22T06:23:53.903Z,99306.31
2023-05-22T06:26:20.742Z,99303.03
2023-05-22T06:28:47.549Z,99302.94
2023-05-22T06:31:14.679Z,99299.09
2023-05-22T06:33:43.515Z,99299.25
2023-05-22T06:36:14.409Z,99302.25
2023-05-22T06:38:41.238Z,99300.47
2023-05-22T06:41:08.282Z,99299.19
2023-05-22T06:43:35.198Z,99292.59
2023-05-22T06:46:02.139Z,99293.47
2023-05-22T06:48:29.066Z,99289.72
2023-05-22T06:50:56.025Z,99286.91
2023-05-22T06:53:24.129Z,99294.09
2023-05-22T06:55:51.330Z,99294.22
2023-05-22T06:58:18.965Z,99293.81
2023-05-22T07:00:45.879Z,99295.22
2023-05-22T07:03:12.896Z,99296.44
2023-05-22T07:05:39.852Z,99299.69
2023-05-22T07:08:08.640Z,99295.44
2023-05-22T07:10:35.470Z,99301.25
2023-05-22T07:13:02.562Z,99305.94
2023-05-22T07:15:29.642Z,99302.69
2023-05-22T07:17:56.554Z,99304.16
2023-05-22T07:20:23.573Z,99306.63
2023-05-22T07:22:50.348Z,99300.84
2023-05-22T07:25:17.216Z,99304.03
2023-05-22T07:27:44.199Z,99303.91
2023-05-22T07:30:11.495Z,99301.47
2023-05-22T07:32:38.681Z,99298.00
2023-05-22T07:35:06.042Z,99303.50
2023-05-22T07:37:33.327Z,99293.69
2023-05-22T07:40:00.210Z,99296.19
2023-05-22T07:42:27.609Z,99298.44
2023-05-22T07:44:54.408Z,99297.66
2023-05-22T07:47:21.354Z,99298.34
2023-05-22T07:49:48.251Z,99286.75
2023-05-22T07:52:14.990Z,99296.41
2023-05-22T07:54:43.491Z,99286.91
2023-05-22T07:57:12.744Z,99296.56
2023-05-22T07:59:39.508Z,99292.72
2023-05-22T08:02:08.717Z,99294.75
2023-05-22T08:04:35.796Z,99297.69
2023-05-22T08:07:02.815Z,99299.34
2023-05-22T08:09:29.705Z,99307.38
2023-05-22T08:11:56.691Z,99297.97
2023-05-22T08:14:23.479Z,99295.72
2023-05-22T08:16:50.320Z,99293.50
2023-05-22T08:19:17.267Z,99291.09
2023-05-22T08:21:44.199Z,99289.31
2023-05-22T08:24:11.030Z,99286.78
2023-05-22T08:26:39.008Z,99292.22
2023-05-22T08:29:05.944Z,99289.50
2023-05-22T08:31:34.634Z,99286.09
2023-05-22T08:34:05.206Z,99285.44
2023-05-22T08:36:34.419Z,99285.16
2023-05-22T08:39:01.744Z,99282.00
2023-05-22T08:41:29.960Z,99273.44
2023-05-22T08:43:57.304Z,99278.84
2023-05-22T08:46:29.356Z,99273.00
2023-05-22T08:48:58.174Z,99270.53
2023-05-22T08:51:29.654Z,99261.66
2023-05-22T08:53:57.579Z,99268.09
2023-05-22T08:56:26.063Z,99262.13
2023-05-22T08:58:55.227Z,99272.34
2023-05-22T09:01:22.947Z,99265.13
2023-05-22T09:03:51.610Z,99265.13
2023-05-22T09:06:18.878Z,99262.88
2023-05-22T09:08:46.370Z,99262.06
2023-05-22T09:11:13.493Z,99260.13
2023-05-22T09:13:41.587Z,99259.91
2023-05-22T09:16:15.225Z,99255.44
2023-05-22T09:18:42.843Z,99252.38
2023-05-22T09:21:25.840Z,99257.00
2023-05-22T09:24:01.769Z,99252.78
2023-05-22T09:26:29.807Z,99256.09
2023-05-22T09:29:00.264Z,99252.69
2023-05-22T09:31:32.096Z,99252.19
2023-05-22T09:33:59.954Z,99248.94
2023-05-22T09:36:34.272Z,99257.41
2023-05-22T09:39:02.211Z,99257.09
2023-05-22T09:41:30.902Z,99240.66
2023-05-22T09:43:59.745Z,99241.25
2023-05-22T09:46:27.922Z,99244.03
2023-05-22T09:48:54.868Z,99242.44
2023-05-22T09:51:26.833Z,99247.22
2023-05-22T09:54:02.532Z,99244.50
2023-05-22T09:56:39.362Z,99246.19
2023-05-22T09:59:09.818Z,99246.81
2023-05-22T10:01:39.384Z,99241.50
2023-05-22T10:04:09.082Z,99240.75
2023-05-22T10:06:37.353Z,99249.06
2023-05-22T10:09:07.908Z,99247.69
2023-05-22T10:11:36.133Z,99238.94
2023-05-22T10:14:05.249Z,99241.00
2023-05-22T10:16:34.460Z,99234.38
2023-05-22T10:19:01.477Z,99232.59
2023-05-22T10:21:30.427Z,99239.16
2023-05-22T10:23:59.377Z,99252.25
2023-05-22T10:26:26.692Z,99246.63
2023-05-22T10:29:18.284Z,99242.13
2023-05-22T10:31:56.049Z,99235.81
2023-05-22T10:34:47.328Z,99230.66
2023-05-22T10:37:45.544Z,99229.00
2023-05-22T10:40:22.317Z,99235.25
2023-05-22T10:42:49.233Z,99224.19
2023-05-22T10:45:17.007Z,99225.31
2023-05-22T10:47:43.960Z,99224.44
2023-05-22T10:50:12.193Z,99228.25
2023-05-22T10:52:40.548Z,99217.47
2023-05-22T10:55:09.465Z,99219.19
2023-05-22T10:57:40.253Z,99212.97
2023-05-22T11:00:16.008Z,99218.75
2023-05-22T11:02:44.803Z,99218.63
2023-05-22T11:05:25.775Z,99219.13
2023-05-22T11:07:52.781Z,99215.97
2023-05-22T11:10:53.207Z,99219.78
2023-05-22T11:13:20.080Z,99210.75
2023-05-22T11:15:47.051Z,99212.19
2023-05-22T11:18:16.814Z,99219.34
2023-05-22T11:20:44.613Z,99213.19
2023-05-22T11:23:11.878Z,99214.19
2023-05-22T11:25:41.539Z,99209.63
2023-05-22T11:28:10.848Z,99210.66
2023-05-22T11:30:38.521Z,99201.81
2023-05-22T11:33:06.864Z,99204.28
2023-05-22T11:35:34.322Z,99198.91
2023-05-22T11:38:06.061Z,99197.78
2023-05-22T11:40:33.017Z,99201.75
2023-05-22T11:42:59.858Z,99194.81
2023-05-22T11:45:27.287Z,99186.47
2023-05-22T11:47:54.356Z,99182.50
2023-05-22T11:50:40.193Z,99192.59
2023-05-22T11:53:08.408Z,99180.41
2023-05-22T11:55:35.275Z,99180.19
2023-05-22T11:58:02.962Z,99181.84
2023-05-22T12:00:31.609Z,99181.34
2023-05-22T12:02:58.981Z,99176.03
2023-05-22T12:05:25.911Z,99169.88
2023-05-22T12:07:53.155Z,99181.13
2023-05-22T12:10:20.107Z,99177.72
2023-05-22T12:12:48.313Z,99163.81
2023-05-22T12:15:20.461Z,99162.38
2023-05-22T12:17:47.342Z,99170.63
2023-05-22T12:20:17.057Z,99162.38
2023-05-22T12:22:44.196Z,99161.03
2023-05-22T12:25:15.668Z,99157.44
2023-05-22T12:27:45.013Z,99155.06
2023-05-22T12:30:13.911Z,99149.47
2023-05-22T12:32:41.156Z,99147.75
2023-05-22T12:35:16.170Z,99150.56
2023-05-22T12:37:51.864Z,99136.38
2023-05-22T12:40:19.311Z,99130.66
2023-05-22T12:42:46.307Z,99141.91
2023-05-22T12:45:13.740Z,99134.44
2023-05-22T12:47:40.668Z,99129.44
2023-05-22T12:50:08.427Z,99132.31
2023-05-22T12:52:36.321Z,99132.94
2023-05-22T12:55:03.520Z,99124.44
2023-05-22T12:57:30.332Z,99128.91
2023-05-22T12:59:57.178Z,99123.75
2023-05-22T13:02:24.086Z,99126.34
2023-05-22T13:04:51.081Z,99130.44
2023-05-22T13:07:17.987Z,99117.41
2023-05-22T13:09:44.861Z,99121.38
2023-05-22T13:12:11.810Z,99121.63
2023-05-22T13:14:40.870Z,99120.47
2023-05-22T13:17:08.065Z,99111.94
2023-05-22T13:19:35.179Z,99112.00
2023-05-22T13:22:02.098Z,99114.53
2023-05-22T13:24:28.992Z,99115.50
2023-05-22T13:26:55.854Z,99123.09
2023-05-22T13:29:22.665Z,99119.88
2023-05-22T13:31:49.620Z,99117.44
2023-05-22T13:34:16.616Z,99118.00
2023-05-22T13:36:43.693Z,99115.88
2023-05-22T13:39:10.559Z,99114.59
2023-05-22T13:41:37.404Z,99120.47
2023-05-22T13:44:04.221Z,99119.41
2023-05-22T13:46:31.320Z,99110.88
2023-05-22T13:48:59.755Z,99106.63
2023-05-22T13:51:26.947Z,99112.25
2023-05-22T13:53:53.925Z,99099.63
2023-05-22T13:56:22.625Z,99107.06
2023-05-22T13:58:49.846Z,99097.56
2023-05-22T14:01:16.683Z,99097.59
2023-05-22T14:03:44.890Z,99089.44
2023-05-22T14:06:12.008Z,99088.53
2023-05-22T14:08:38.944Z,99086.09
2023-05-22T14:11:05.812Z,99092.34
2023-05-22T14:13:32.715Z,99086.84
2023-05-22T14:15:59.496Z,99089.59
2023-05-22T14:18:26.284Z,99081.78
2023-05-22T14:20:53.170Z,99087.06
2023-05-22T14:23:20.062Z,99089.34
2023-05-22T14:25:46.949Z,99091.31
2023-05-22T14:28:14.339Z,99088.38
2023-05-22T14:30:41.382Z,99086.81
2023-05-22T14:33:08.235Z,99082.13
2023-05-22T14:35:35.110Z,99093.47
2023-05-22T14:38:02.298Z,99091.94
2023-05-22T14:40:29.205Z,99083.41
2023-05-22T14:42:56.143Z,99086.81
2023-05-22T14:45:22.997Z,99083.09
2023-05-22T14:47:49.907Z,99077.88
2023-05-22T14:50:20.120Z,99076.31
2023-05-22T14:52:48.698Z,99071.00
2023-05-22T14:55:16.209Z,99068.56
2023-05-22T14:57:43.105Z,99074.38
2023-05-22T15:00:11.155Z,99069.53
2023-05-22T15:02:38.201Z,99064.94
2023-05-22T15:05:05.889Z,99054.59
2023-05-22T15:07:43.093Z,99060.50
2023-05-22T15:10:11.423Z,99052.00
2023-05-22T15:12:38.303Z,99059.97
2023-05-22T15:15:05.610Z,99052.44
2023-05-22T15:17:32.715Z,99059.81
2023-05-22T15:20:00.007Z,99052.53
2023-05-22T15:22:26.754Z,99061.03
2023-05-22T15:25:08.294Z,99051.59
2023-05-22T15:27:35.887Z,99050.28
2023-05-22T15:30:03.605Z,99048.22
2023-05-22T15:32:32.326Z,99046.44
2023-05-22T15:34:59.294Z,99040.06
2023-05-22T15:37:26.155Z,99042.31
2023-05-22T15:39:53.528Z,99041.22
2023-05-22T15:42:20.441Z,99038.25
2023-05-22T15:44:47.198Z,99028.16
2023-05-22T15:47:14.064Z,99034.47
2023-05-22T15:49:41.378Z,99025.47
2023-05-22T15:52:08.195Z,99030.78
2023-05-22T15:54:35.060Z,99022.50
2023-05-22T15:57:01.829Z,99030.91
2023-05-22T15:59:28.597Z,99027.44
2023-05-22T16:01:55.387Z,99030.16
2023-05-22T16:04:22.298Z,99021.91
2023-05-22T16:06:49.227Z,99024.66
2023-05-22T16:09:18.727Z,99030.00
2023-05-22T16:11:45.827Z,99031.63
2023-05-22T16:14:12.670Z,99046.59
2023-05-22T16:16:39.625Z,99030.28
2023-05-22T16:19:06.667Z,99026.19
2023-05-22T16:21:33.844Z,99027.09
2023-05-22T16:24:00.773Z,99024.41
2023-05-22T16:26:27.593Z,99028.63
2023-05-22T16:28:54.570Z,99032.25
2023-05-22T16:31:21.587Z,99031.94
2023-05-22T16:33:48.461Z,99028.69
2023-05-22T16:36:15.286Z,99039.16
2023-05-22T16:38:42.228Z,99027.22
2023-05-22T16:41:09.241Z,99040.19
2023-05-22T16:43:37.964Z,99036.78
2023-05-22T16:46:04.781Z,99041.34
2023-05-22T16:48:31.534Z,99052.44
2023-05-22T16:50:58.306Z,99047.03
2023-05-22T16:53:25.135Z,99057.50
2023-05-22T16:55:52.277Z,99068.81
2023-05-22T16:58:19.369Z,99068.38
2023-05-22T17:00:46.324Z,99063.19
2023-05-22T17:03:14.353Z,99063.34
2023-05-22T17:05:41.537Z,99067.22
2023-05-22T17:08:08.736Z,99064.31
2023-05-22T17:10:35.674Z,99066.28
2023-05-22T17:13:02.613Z,99066.31
2023-05-22T17:15:29.400Z,99066.88
2023-05-22T17:17:56.310Z,99072.03
2023-05-22T17:20:26.146Z,99070.72
2023-05-22T17:22:53.064Z,99062.25
2023-05-22T17:25:19.954Z,99064.69
2023-05-22T17:27:46.816Z,99066.41
2023-05-22T17:30:13.696Z,99063.78
2023-05-22T17:32:40.516Z,99061.56
2023-05-22T17:35:07.630Z,99066.13
2023-05-22T17:37:34.422Z,99076.34
2023-05-22T17:40:01.361Z,99074.25
2023-05-22T17:42:28.178Z,99080.59
2023-05-22T17:44:55.126Z,99074.88
2023-05-22T17:47:22.165Z,99080.22
2023-05-22T17:49:49.050Z,99082.66
2023-05-22T17:52:15.909Z,99087.63
2023-05-22T17:54:42.791Z,99093.31
2023-05-22T17:57:09.703Z,99100.63
2023-05-22T17:59:38.458Z,99100.34
2023-05-22T18:02:07.254Z,99108.06
2023-05-22T18:04:34.092Z,99111.66
2023-05-22T18:07:00.847Z,99114.53
2023-05-22T18:09:27.637Z,99121.31
2023-05-22T18:11:54.700Z,99114.84
2023-05-22T18:14:21.481Z,99122.31
2023-05-22T18:16:48.310Z,99117.41
2023-05-22T18:19:15.286Z,99123.13
2023-05-22T18:21:42.169Z,99127.50
2023-05-22T18:24:09.053Z,99122.78
2023-05-22T18:26:35.955Z,99123.25
2023-05-22T18:29:02.761Z,99119.19
2023-05-22T18:31:29.711Z,99117.56
2023-05-22T18:33:56.730Z,99134.81
2023-05-22T18:36:23.617Z,99136.19
2023-05-22T18:38:50.494Z,99116.63
2023-05-22T18:41:17.286Z,99127.22
2023-05-22T18:43:44.112Z,99134.00
2023-05-22T18:46:11.050Z,99132.00
2023-05-22T18:48:37.950Z,99138.81
2023-05-22T18:51:04.856Z,99136.06
2023-05-22T18:53:31.796Z,99135.69
2023-05-22T18:55:58.691Z,99133.88
2023-05-22T18:58:25.858Z,99135.59
2023-05-22T19:00:55.708Z,99145.00
2023-05-22T19:03:22.674Z,99141.84
2023-05-22T19:05:49.598Z,99146.94
2023-05-22T19:08:16.541Z,99167.47
2023-05-22T19:10:43.459Z,99159.75
2023-05-22T19:13:10.268Z,99165.53
2023-05-22T19:15:37.839Z,99161.78
2023-05-22T19:18:04.686Z,99146.47
2023-05-22T19:20:32.959Z,99167.72
2023-05-22T19:22:59.866Z,99159.88
2023-05-22T19:25:26.679Z,99165.66
2023-05-22T19:27:53.527Z,99167.78
2023-05-22T19:30:22.054Z,99164.72
2023-05-22T19:32:51.448Z,99170.38
2023-05-22T19:35:18.314Z,99174.25
2023-05-22T19:37:45.657Z,99182.13
2023-05-22T19:40:12.596Z,99184.03
2023-05-22T19:42:40.138Z,99184.53
2023-05-22T19:45:07.773Z,99183.19
2023-05-22T19:47:34.682Z,99180.72
2023-05-22T19:50:02.317Z,99184.28
2023-05-22T19:52:29.113Z,99185.00
2023-05-22T19:54:56.071Z,99187.31
2023-05-22T19:57:22.934Z,99185.00
2023-05-22T19:59:50.549Z,99178.13
2023-05-22T20:02:17.420Z,99188.03
2023-05-22T20:04:44.363Z,99181.00
2023-05-22T20:07:11.206Z,99189.81
2023-05-22T20:09:38.063Z,99194.75
2023-05-22T20:12:05.261Z,99189.94
2023-05-22T20:14:32.010Z,99198.22
2023-05-22T20:17:03.064Z,99190.28
2023-05-22T20:19:30.284Z,99184.03
2023-05-22T20:21:58.473Z,99187.94
2023-05-22T20:24:28.261Z,99185.78
2023-05-22T20:26:55.133Z,99187.47
2023-05-22T20:29:22.279Z,99179.63
2023-05-22T20:31:49.424Z,99182.63
2023-05-22T20:34:16.356Z,99184.81
2023-05-22T20:36:45.190Z,99193.63
2023-05-22T20:39:12.090Z,99190.13
2023-05-22T20:41:38.892Z,99193.56
2023-05-22T20:44:06.655Z,99197.94
2023-05-22T20:46:34.008Z,99207.59
2023-05-22T20:49:03.668Z,99202.81
2023-05-22T20:51:32.866Z,99204.47
2023-05-22T20:54:00.253Z,99205.81
2023-05-22T20:56:27.723Z,99198.94
2023-05-22T20:58:54.998Z,99212.47
2023-05-22T21:01:25.146Z,99208.34
2023-05-22T21:03:52.029Z,99208.13
2023-05-22T21:06:19.457Z,99205.38
2023-05-22T21:08:46.312Z,99212.81
2023-05-22T21:11:13.271Z,99216.31
2023-05-22T21:13:40.087Z,99212.34
2023-05-22T21:16:07.161Z,99209.34
2023-05-22T21:18:34.095Z,99213.22
2023-05-22T21:21:01.042Z,99217.63
2023-05-22T21:23:28.046Z,99224.16
2023-05-22T21:25:54.834Z,99219.00
2023-05-22T21:28:21.649Z,99229.38
2023-05-22T21:30:48.496Z,99229.38
2023-05-22T21:33:15.355Z,99239.75
2023-05-22T21:35:42.195Z,99229.97
2023-05-22T21:38:08.972Z,99235.00
2023-05-22T21:40:35.820Z,99236.09
2023-05-22T21:43:02.593Z,99251.41
2023-05-22T21:45:29.460Z,99240.00
2023-05-22T21:47:56.321Z,99244.88
2023-05-22T21:50:23.172Z,99237.28
2023-05-22T21:52:49.980Z,99247.97
2023-05-22T21:55:16.828Z,99241.69
2023-05-22T21:57:45.778Z,99249.88
2023-05-22T22:00:13.493Z,99248.78
2023-05-22T22:02:40.503Z,99258.66
2023-05-22T22:05:07.915Z,99248.00
2023-05-22T22:07:34.737Z,99254.34
2023-05-22T22:10:01.567Z,99259.25
2023-05-22T22:12:28.383Z,99263.09
2023-05-22T22:14:55.241Z,99257.63
2023-05-22T22:17:23.963Z,99267.47
2023-05-22T22:19:53.781Z,99264.19
2023-05-22T22:22:22.838Z,99271.06
2023-05-22T22:24:50.007Z,99268.06
2023-05-22T22:27:16.915Z,99267.00
2023-05-22T22:29:43.949Z,99262.06
2023-05-22T22:32:10.889Z,99257.72
2023-05-22T22:34:37.830Z,99255.53
2023-05-22T22:37:06.223Z,99264.84
2023-05-22T22:39:33.187Z,99263.75
2023-05-22T22:42:04.353Z,99264.84
2023-05-22T22:44:31.989Z,99264.28
2023-05-22T22:46:58.801Z,99254.75
2023-05-22T22:49:25.611Z,99261.84
2023-05-22T22:51:52.804Z,99263.75
2023-05-22T22:54:19.694Z,99258.84
2023-05-22T22:56:47.479Z,99262.66
2023-05-22T22:59:14.324Z,99262.09
2023-05-22T23:01:41.180Z,99274.94
2023-05-22T23:04:08.203Z,99273.56
2023-05-22T23:06:35.475Z,99275.72
2023-05-22T23:09:04.054Z,99275.19
2023-05-22T23:11:37.690Z,99283.91
2023-05-22T23:14:08.658Z,99287.44
2023-05-22T23:16:36.721Z,99295.34
2023-05-22T23:19:04.472Z,99299.16
2023-05-22T23:21:32.703Z,99294.00
2023-05-22T23:24:00.828Z,99296.19
2023-05-22T23:26:28.358Z,99303.53
2023-05-22T23:28:55.277Z,99305.44
2023-05-22T23:31:26.277Z,99303.50
2023-05-22T23:33:53.359Z,99299.13
2023-05-22T23:36:20.148Z,99308.13
2023-05-22T23:38:47.336Z,99307.59
2023-05-22T23:41:15.455Z,99305.69
2023-05-22T23:43:42.588Z,99304.84
2023-05-22T23:46:09.579Z,99289.88
2023-05-22T23:48:36.309Z,99296.66
2023-05-22T23:51:03.699Z,99295.28
2023-05-22T23:53:30.574Z,99288.72
2023-05-22T23:55:57.566Z,99283.28
2023-05-22T23:58:24.331Z,99283.53
